Latest Weather Observations for Port Lincoln Airport

IDS60801

Issued at 3:35 am CST Wednesday 1 October 2014 (issued every 30 minutes, with the page automatically refreshed every 10 minutes)

About weather observations | Map of weather stations | Latest weather observations for SA | Other Formats
Station Details ID: 018192 Name: PORT LINCOLN AWS Lat: -34.60 Lon: 135.88 Height: 8.5 m
Data from the previous 72 hours. | See also: Recent months at Port Lincoln Airport
Date/Time
CST
Temp
°C
App
Temp
°C
Dew
Point
Rel
Hum
%
Delta-T
°C
Wind Press
QNH
hPa
Press
MSL
hPa
Rain
since 9 am
mm
Dir
 
Spd
km/h
Gust
km/h
Spd
kts
Gust
kts
01/03:30am 8.3 4.4 5.4 82 1.3 WSW 15 17 8 9 1025.5 1025.5 0.0
01/03:00am 9.2 5.8 5.8 79 1.5 SW 13 17 7 9 1025.4 1025.4 0.0
01/02:30am 9.1 6.0 5.5 78 1.6 SW 11 15 6 8 1025.3 1025.3 0.0
01/02:00am 9.1 5.2 5.3 77 1.7 WSW 15 17 8 9 1025.3 1025.3 0.0
01/01:30am 10.5 6.8 6.3 75 1.9 SW 15 20 8 11 1025.2 1025.2 0.0
01/01:00am 9.7 6.0 6.2 79 1.6 WSW 15 19 8 10 1025.0 1025.0 0.0
01/12:30am 11.8 7.9 6.9 72 2.3 WSW 17 22 9 12 1025.0 1025.0 0.0
01/12:00am 11.0 8.3 7.3 78 1.8 WSW 11 15 6 8 1024.8 1024.8 0.0
 
Date/Time
CST
Temp
°C
App
Temp
°C
Dew
Point
Rel
Hum
%
Delta-T
°C
Wind Press
QNH
hPa
Press
MSL
hPa
Rain
since 9 am
mm
Dir
 
Spd
km/h
Gust
km/h
Spd
kts
Gust
kts
30/11:30pm 11.6 7.4 7.3 75 2.1 WSW 19 24 10 13 1024.7 1024.7 0.0
30/11:00pm 8.7 5.4 6.5 86 1.0 W 13 15 7 8 1024.5 1024.5 0.0
30/10:30pm 8.4 4.7 6.4 87 0.9 WSW 15 17 8 9 1024.4 1024.4 0.0
30/10:00pm 8.8 5.5 6.4 85 1.1 WSW 13 15 7 8 1024.3 1024.3 0.0
30/09:30pm 10.8 8.1 7.5 80 1.6 WSW 11 15 6 8 1023.9 1023.9 0.0
30/09:00pm 12.3 9.1 8.6 78 1.8 WSW 15 20 8 11 1023.6 1023.6 0.0
30/08:30pm 11.3 8.3 7.8 79 1.7 W 13 15 7 8 1023.4 1023.4 0.0
30/08:00pm 10.2 7.1 7.4 83 1.3 W 13 15 7 8 1023.0 1023.0 0.0
30/07:30pm 11.3 8.9 7.2 76 2.0 W 9 13 5 7 1022.6 1022.6 0.0
30/07:00pm 13.4 9.3 7.8 69 2.8 SW 19 28 10 15 1022.0 1022.0 0.0
30/06:30pm 14.0 8.8 7.3 64 3.3 SW 24 35 13 19 1021.3 1021.3 0.0
30/06:00pm 14.9 9.9 8.2 64 3.3 SW 24 33 13 18 1020.8 1020.8 0.0
30/05:30pm 15.4 9.7 8.2 62 3.6 SW 28 37 15 20 1020.3 1020.3 0.0
30/05:00pm 16.4 9.4 6.0 50 5.0 SW 32 48 17 26 1019.6 1019.6 0.0
30/04:30pm 17.1 9.9 7.5 53 4.8 WSW 35 50 19 27 1019.3 1019.3 0.0
30/04:02pm 18.0 11.2 6.8 48 5.6 SW 32 50 17 27 1018.8 1018.8 0.0
30/04:00pm 18.4 11.5 6.6 46 5.9 WSW 32 46 17 25 1018.7 1018.7 0.0
30/03:30pm 17.7 10.9 6.9 49 5.4 WSW 32 46 17 25 1018.5 1018.5 0.0
30/03:00pm 18.2 10.8 6.7 47 5.7 WSW 35 48 19 26 1018.2 1018.2 0.0
30/02:49pm 18.5 11.9 7.6 49 5.5 SW 32 41 17 22 1018.1 1018.1 0.0
30/02:30pm 19.0 10.5 5.1 40 6.7 WSW 39 52 21 28 1017.9 1017.9 0.0
30/02:00pm 19.3 11.2 7.1 45 6.2 WSW 39 50 21 27 1017.7 1017.7 0.0
30/01:43pm 18.1 10.2 7.8 51 5.2 W 39 57 21 31 1017.5 1017.5 0.0
30/01:30pm 18.5 11.6 9.0 54 4.9 WSW 35 46 19 25 1017.4 1017.4 0.0
30/01:00pm 17.0 10.9 10.6 66 3.4 SW 33 48 18 26 1017.3 1017.3 0.0
30/12:33pm 17.7 11.5 11.5 67 3.4 W 35 57 19 31 1016.9 1016.9 0.0
30/12:30pm 18.2 12.4 11.5 65 3.7 WSW 33 44 18 24 1016.9 1016.9 0.0
30/12:08pm 18.5 12.0 12.9 70 3.1 WSW 39 54 21 29 1016.6 1016.6 0.0
30/12:00pm 16.7 11.2 13.6 82 1.7 WSW 35 50 19 27 1016.6 1016.6 0.0
30/11:51am 16.1 10.1 13.4 84 1.5 WSW 37 50 20 27 1016.6 1016.6 0.0
30/11:42am 17.5 11.0 11.8 69 3.1 WSW 37 44 20 24 1016.4 1016.4 0.0
30/11:30am 20.0 13.1 11.5 58 4.7 W 39 54 21 29 1016.1 1016.1 0.0
30/11:03am 17.6 10.8 12.1 70 3.0 W 39 57 21 31 1016.2 1016.2 0.0
30/11:00am 17.8 10.6 11.8 68 3.3 W 41 54 22 29 1016.1 1016.1 0.0
30/10:35am 19.7 11.4 10.1 54 5.2 W 44 63 24 34 1015.6 1015.6 0.0
30/10:30am 19.3 10.8 10.6 57 4.7 W 46 59 25 32 1015.7 1015.7 0.0
30/10:00am 20.6 12.6 11.2 55 5.2 W 44 59 24 32 1015.5 1015.5 0.0
30/09:43am 19.4 11.3 10.7 57 4.7 W 44 65 24 35 1015.2 1015.2 0.0
30/09:30am 18.7 11.4 11.5 63 3.9 W 41 56 22 30 1015.0 1015.0 0.0
30/09:00am 17.9 10.8 10.8 63 3.8 W 39 57 21 31 1014.9 1014.9 0.0
30/08:38am 17.7 10.2 10.8 64 3.7 W 41 59 22 32 1014.6 1014.6 0.0
30/08:30am 18.1 10.8 11.4 65 3.6 W 41 52 22 28 1014.6 1014.6 0.0
30/08:02am 17.7 12.2 11.7 68 3.3 W 32 50 17 27 1014.0 1014.0 0.0
30/08:00am 17.6 11.9 11.8 69 3.2 W 33 50 18 27 1013.9 1013.9 0.0
30/07:30am 16.7 12.0 12.0 74 2.6 W 28 39 15 21 1013.9 1013.9 0.0
30/07:00am 15.6 10.5 12.0 79 2.0 W 30 43 16 23 1013.8 1013.8 0.0
30/06:30am 14.8 10.4 11.8 82 1.6 W 26 37 14 20 1013.4 1013.4 0.0
30/06:00am 14.3 10.8 10.9 80 1.8 WNW 20 26 11 14 1012.4 1012.4 0.0
30/05:30am 11.3 8.8 8.3 82 1.5 N 11 15 6 8 - 1013.7 0.0
30/05:00am 12.3 8.3 8.2 76 2.0 NNW 19 24 10 13 1011.9 1011.9 0.0
30/04:30am 12.0 7.9 7.7 75 2.1 NNW 19 24 10 13 1011.8 1011.8 0.0
30/04:00am 11.6 7.8 7.5 76 2.0 NW 17 24 9 13 1011.8 1011.8 0.0
30/03:30am 11.8 7.1 7.7 76 2.0 NW 22 28 12 15 1011.8 1011.8 0.0
30/03:00am 11.8 7.8 8.1 78 1.8 NW 19 20 10 11 1011.8 1011.8 0.0
30/02:30am 10.6 8.1 8.2 85 1.2 NW 11 15 6 8 1011.7 1011.7 0.0
30/02:00am 10.4 7.9 8.3 87 1.0 NW 11 15 6 8 1011.7 1011.7 0.0
30/01:30am 10.4 7.5 8.3 87 1.0 NW 13 17 7 9 1012.0 1012.0 0.0
30/01:00am 10.5 7.7 8.6 88 0.9 NW 13 17 7 9 1012.2 1012.2 0.0
30/12:30am 10.7 8.0 9.1 90 0.8 NNW 13 15 7 8 1012.7 1012.7 0.0
30/12:00am 10.7 8.4 9.1 90 0.8 WNW 11 13 6 7 1013.1 1013.1 0.0
 
Date/Time
CST
Temp
°C
App
Temp
°C
Dew
Point
Rel
Hum
%
Delta-T
°C
Wind Press
QNH
hPa
Press
MSL
hPa
Rain
since 9 am
mm
Dir
 
Spd
km/h
Gust
km/h
Spd
kts
Gust
kts
29/11:30pm 11.2 9.4 9.6 90 0.8 WNW 9 13 5 7 1013.6 1013.6 0.0
29/11:00pm 11.3 9.2 9.6 89 0.9 NW 11 17 6 9 1014.1 1014.1 0.0
29/10:30pm 12.1 9.0 10.3 89 0.9 NW 17 20 9 11 1014.4 1014.4 0.0
29/10:00pm 12.3 9.6 10.5 89 0.9 NNW 15 22 8 12 1014.6 1014.6 0.0
29/09:30pm 11.2 9.9 9.3 88 1.0 N 6 9 3 5 1014.9 1014.9 0.0
29/09:00pm 11.7 9.6 9.8 88 1.0 WNW 11 15 6 8 1015.0 1015.0 0.0
29/08:30pm 13.1 10.5 10.8 86 1.2 WNW 15 20 8 11 1014.9 1014.9 0.0
29/08:00pm 12.3 10.8 10.4 88 1.0 WNW 9 11 5 6 1014.7 1014.7 0.0
29/07:30pm 13.2 11.0 10.7 85 1.3 WNW 13 17 7 9 1014.4 1014.4 0.0
29/07:00pm 14.2 11.7 11.2 82 1.6 WNW 15 20 8 11 1014.1 1014.1 0.0
29/06:30pm 15.3 12.4 11.1 76 2.2 WNW 17 26 9 14 1014.1 1014.1 0.0
29/06:00pm 16.6 12.3 10.7 68 3.1 WNW 24 32 13 17 1014.1 1014.1 0.0
29/05:30pm 17.4 12.5 11.2 67 3.4 WNW 28 39 15 21 1013.9 1013.9 0.0
29/05:00pm 18.1 13.1 11.0 63 3.8 WNW 28 37 15 20 1013.7 1013.7 0.0
29/04:30pm 18.8 12.9 10.4 58 4.5 WNW 32 41 17 22 1013.4 1013.4 0.0
29/04:00pm 20.4 15.3 10.5 53 5.4 W 28 37 15 20 1013.2 1013.2 0.0
29/03:30pm 20.0 14.5 10.4 54 5.2 WNW 30 39 16 21 1012.9 1012.9 0.0
29/03:00pm 20.8 15.8 9.4 48 6.1 WNW 26 39 14 21 1012.8 1012.8 0.0
29/02:30pm 21.1 16.2 8.4 44 6.7 W 24 35 13 19 1013.0 1013.0 0.0
29/02:00pm 21.6 16.1 9.2 45 6.6 NW 28 39 15 21 1013.2 1013.2 0.0
29/01:30pm 21.3 16.4 9.9 48 6.1 WNW 26 39 14 21 1013.6 1013.6 0.0
29/01:00pm 20.4 15.0 9.6 50 5.8 NW 28 39 15 21 1013.8 1013.8 0.0
29/12:30pm 21.3 16.3 8.2 43 6.8 WNW 24 41 13 22 1014.0 1014.0 0.0
29/12:00pm 21.0 16.2 8.9 46 6.4 WNW 24 33 13 18 1014.4 1014.4 0.0
29/11:30am 19.9 15.1 8.9 49 5.8 W 24 30 13 16 1014.7 1014.7 0.0
29/11:00am 19.7 15.4 9.3 51 5.5 WNW 22 37 12 20 1014.9 1014.9 0.0
29/10:30am 20.3 15.7 8.3 46 6.2 NW 22 32 12 17 1015.3 1015.3 0.0
29/10:00am 18.8 14.9 9.3 54 5.0 WNW 20 35 11 19 1015.5 1015.5 0.0
29/09:30am 18.3 13.5 8.8 54 4.9 WNW 24 32 13 17 1015.6 1015.6 0.0
29/09:00am 16.9 13.5 9.3 61 3.9 WNW 17 24 9 13 1015.7 1015.7 0.0
29/08:30am 16.6 14.4 10.7 68 3.1 W 13 19 7 10 1015.5 1015.5 0.0
29/08:00am 15.3 14.7 11.7 79 1.9 NNW 6 11 3 6 1015.2 1015.2 0.0
29/07:30am 14.1 14.7 12.0 87 1.1 CALM 0 0 0 0 1015.1 1015.1 0.0
29/07:00am 11.6 11.9 11.0 96 0.3 CALM 0 0 0 0 1015.0 1015.0 0.0
29/06:30am 10.6 9.3 9.8 95 0.4 N 7 11 4 6 1014.5 1014.5 0.0
29/06:00am 11.7 10.4 11.2 97 0.3 W 9 13 5 7 1014.2 1014.2 0.0
29/05:30am 9.5 7.9 8.6 94 0.4 NNE 7 9 4 5 1014.1 1014.1 0.0
29/05:00am 9.9 8.5 8.7 92 0.6 NNW 6 9 3 5 1013.9 1013.9 0.0
29/04:30am 10.6 8.8 9.5 93 0.6 WNW 9 11 5 6 1013.7 1013.7 0.0
29/04:00am 11.2 8.8 10.1 93 0.6 NNW 13 17 7 9 1013.7 1013.7 0.0
29/03:30am 11.2 8.7 9.8 91 0.7 WNW 13 15 7 8 1013.9 1013.9 0.0
29/03:00am 11.6 8.8 9.9 89 0.9 NNW 15 20 8 11 1014.3 1014.3 0.0
29/02:30am 12.0 9.3 10.2 89 0.9 WNW 15 19 8 10 1014.6 1014.6 0.0
29/02:00am 12.0 8.8 9.9 87 1.1 NW 17 20 9 11 1014.7 1014.7 0.0
29/01:30am 12.2 9.9 10.3 88 1.0 NW 13 15 7 8 1014.7 1014.7 0.0
29/01:00am 12.6 11.0 10.3 86 1.2 NNW 9 13 5 7 1014.9 1014.9 0.0
29/12:30am 13.2 10.9 10.6 84 1.4 NW 13 19 7 10 1015.1 1015.1 0.0
29/12:00am 13.5 9.9 10.7 83 1.5 WNW 20 28 11 15 1015.1 1015.1 0.0
 
Date/Time
CST
Temp
°C
App
Temp
°C
Dew
Point
Rel
Hum
%
Delta-T
°C
Wind Press
QNH
hPa
Press
MSL
hPa
Rain
since 9 am
mm
Dir
 
Spd
km/h
Gust
km/h
Spd
kts
Gust
kts
28/11:30pm 13.8 10.9 11.1 84 1.4 WNW 17 20 9 11 1015.2 1015.2 0.0
28/11:00pm 13.9 11.0 11.1 83 1.5 W 17 20 9 11 1015.3 1015.3 0.0
28/10:30pm 13.7 10.8 11.0 84 1.4 W 17 20 9 11 1015.1 1015.1 0.0
28/10:00pm 14.1 10.7 11.1 82 1.6 W 20 30 11 16 1014.9 1014.9 0.0
28/09:30pm 14.6 11.2 11.2 80 1.8 WNW 20 28 11 15 1014.8 1014.8 0.0
28/09:00pm 14.8 10.6 11.0 78 2.0 WNW 24 33 13 18 1014.4 1014.4 0.0
28/08:30pm 14.4 11.0 10.6 78 2.0 WNW 19 26 10 14 1014.1 1014.1 0.0
28/08:00pm 14.7 11.3 10.7 77 2.1 WNW 19 24 10 13 1013.8 1013.8 0.0
28/07:30pm 14.7 11.5 10.1 74 2.4 WNW 17 28 9 15 1013.3 1013.3 0.0
28/07:00pm 15.0 11.4 10.0 72 2.6 WNW 19 32 10 17 1012.8 1012.8 0.0
28/06:30pm 15.5 11.0 8.7 64 3.5 W 22 37 12 20 1012.4 1012.4 0.0
28/06:00pm 16.4 10.3 9.8 65 3.5 W 32 44 17 24 1011.8 1011.8 0.0
28/05:37pm 17.2 10.3 10.3 64 3.7 W 37 56 20 30 1011.4 1011.4 0.0
28/05:30pm 17.2 9.9 10.1 63 3.8 W 39 54 21 29 1011.1 1011.1 0.0
28/05:17pm 17.6 10.9 9.8 60 4.1 W 35 54 19 29 1010.8 1010.8 0.0
28/05:00pm 18.1 10.3 9.7 58 4.4 W 41 56 22 30 1010.4 1010.4 0.0
28/04:44pm 18.8 10.6 9.6 55 4.9 W 43 61 23 33 1010.1 1010.1 0.0
28/04:30pm 19.0 10.2 9.5 54 5.0 W 46 63 25 34 1009.6 1009.6 0.0
28/04:01pm 19.7 11.1 9.0 50 5.6 W 44 63 24 34 1009.3 1009.3 0.0
28/04:00pm 19.8 11.0 9.4 51 5.5 W 46 63 25 34 1009.2 1009.2 0.0
28/03:42pm 19.8 11.3 9.1 50 5.6 W 44 63 24 34 1009.0 1009.0 0.0
28/03:30pm 20.6 12.4 9.8 50 5.8 W 43 57 23 31 1008.9 1008.9 0.0
28/03:00pm 20.4 11.4 8.7 47 6.2 W 46 61 25 33 1008.8 1008.8 0.0
28/02:33pm 20.9 13.0 10.7 52 5.6 W 43 61 23 33 1008.7 1008.7 0.0
28/02:30pm 20.6 12.2 9.8 50 5.8 W 44 61 24 33 1008.7 1008.7 0.0
28/02:10pm 21.8 14.2 10.6 49 6.1 W 41 59 22 32 1008.7 1008.7 0.0
28/02:00pm 21.8 14.0 11.2 51 5.9 W 43 54 23 29 1008.6 1008.6 0.0
28/01:30pm 21.4 13.8 10.6 50 5.9 W 41 59 22 32 1008.4 1008.4 0.0
28/01:26pm 22.1 14.5 10.6 48 6.3 W 41 59 22 32 1008.5 1008.5 0.0
28/01:00pm 22.7 15.7 11.4 49 6.3 W 39 56 21 30 1008.2 1008.2 0.0
28/12:30pm 22.4 14.5 11.5 50 6.1 W 44 57 24 31 1008.0 1008.0 0.0
28/12:00pm 24.0 16.3 10.3 42 7.6 W 41 54 22 29 1007.8 1007.8 0.0
28/11:30am 25.6 17.4 8.1 33 9.4 W 41 52 22 28 1007.4 1007.4 0.0
28/11:00am 26.5 19.9 8.5 32 9.7 W 33 43 18 23 1007.2 1007.2 0.0
28/10:45am 26.4 19.1 8.8 33 9.6 W 37 52 20 28 1007.1 1007.1 0.0
28/10:30am 25.9 19.9 10.1 37 8.8 WNW 32 43 17 23 1006.9 1006.9 0.0
28/10:00am 25.1 19.0 9.8 38 8.4 NW 32 39 17 21 1006.7 1006.7 0.0
28/09:30am 24.1 18.8 11.1 44 7.3 NW 30 43 16 23 1006.9 1006.9 0.0
28/09:00am 22.2 16.7 12.5 54 5.5 WNW 33 46 18 25 1007.0 1007.0 0.0
28/08:30am 21.5 14.3 11.8 54 5.4 WNW 41 54 22 29 1006.6 1006.6 0.0
28/08:12am 23.1 14.7 8.8 40 7.6 NW 43 61 23 33 1006.3 1006.3 0.0
28/08:00am 23.3 14.8 7.0 35 8.4 NW 41 54 22 29 1006.1 1006.1 0.0
28/07:43am 22.9 13.9 6.6 35 8.4 NW 43 61 23 33 1006.2 1006.2 0.0
28/07:30am 22.2 12.3 6.8 37 7.9 NW 48 63 26 34 1006.1 1006.1 0.0
28/07:00am 21.3 12.7 4.8 34 8.1 NW 39 57 21 31 1006.3 1006.3 0.0
28/06:30am 21.6 12.4 1.3 26 9.4 NW 39 57 21 31 1005.6 1005.6 0.0
28/06:00am 23.3 12.6 0.4 22 10.5 NNW 46 65 25 35 1004.9 1004.9 0.0
28/05:48am 23.7 12.2 0.1 21 10.8 NNW 50 69 27 37 1004.4 1004.4 0.0
28/05:45am 23.8 11.7 0.8 22 10.6 NNW 54 69 29 37 1004.0 1004.0 0.0
28/05:30am 24.5 11.3 0.1 20 11.3 N 59 85 32 46 1002.0 1002.0 0.0
28/05:00am 24.5 12.3 0.1 20 11.2 N 54 82 29 44 1001.9 1001.9 0.0
28/04:30am 24.6 12.4 0.2 20 11.3 N 54 74 29 40 1002.1 1002.1 0.0
28/04:00am 24.6 12.9 0.8 21 11.1 N 52 72 28 39 1002.5 1002.5 0.0

Other Formats:

Comma delimited format used in spreadsheet applications
http://www.bom.gov.au/fwo/IDS60801/IDS60801.95661.axf

JavaScript Object Notation format (JSON) in row-major order
http://www.bom.gov.au/fwo/IDS60801/IDS60801.95661.json